createdAt,value
2018-05-04T00:00:36.553Z,63.91
2018-05-04T00:03:04.861Z,63.56
2018-05-04T00:05:33.282Z,63.81
2018-05-04T00:08:01.589Z,64.17
2018-05-04T00:10:29.917Z,64.45
2018-05-04T00:12:58.232Z,64.28
2018-05-04T00:15:26.644Z,64.53
2018-05-04T00:17:54.964Z,64.43
2018-05-04T00:20:23.282Z,64.14
2018-05-04T00:22:51.674Z,63.93
2018-05-04T00:25:20.070Z,64.07
2018-05-04T00:27:48.437Z,64.21
2018-05-04T00:30:16.771Z,64.37
2018-05-04T00:32:45.135Z,64.18
2018-05-04T00:35:13.473Z,64.25
2018-05-04T00:37:41.816Z,64.44
2018-05-04T00:40:10.125Z,64.98
2018-05-04T00:42:38.470Z,64.29
2018-05-04T00:45:06.789Z,64.22
2018-05-04T00:47:35.155Z,64.27
2018-05-04T00:50:03.468Z,64.26
2018-05-04T00:52:31.824Z,64.61
2018-05-04T00:55:00.142Z,64.18
2018-05-04T00:57:28.448Z,64.78
2018-05-04T00:59:56.832Z,65.25
2018-05-04T01:02:25.221Z,65.11
2018-05-04T01:04:53.609Z,64.85
2018-05-04T01:07:21.919Z,65.04
2018-05-04T01:09:50.253Z,64.64
2018-05-04T01:12:18.581Z,64.71
2018-05-04T01:14:46.913Z,64.37
2018-05-04T01:17:15.289Z,64.48
2018-05-04T01:19:43.611Z,65.01
2018-05-04T01:22:11.937Z,64.88
2018-05-04T01:24:40.243Z,65.08
2018-05-04T01:27:08.547Z,64.50
2018-05-04T01:29:36.871Z,64.45
2018-05-04T01:32:05.192Z,64.34
2018-05-04T01:34:33.504Z,63.97
2018-05-04T01:37:01.822Z,64.80
2018-05-04T01:39:30.144Z,64.17
2018-05-04T01:41:58.448Z,64.95
2018-05-04T01:44:26.783Z,63.84
2018-05-04T01:46:55.095Z,63.79
2018-05-04T01:49:23.628Z,64.19
2018-05-04T01:51:51.976Z,63.56
2018-05-04T01:54:20.286Z,63.59
2018-05-04T01:56:48.626Z,63.32
2018-05-04T01:59:16.973Z,63.57
2018-05-04T02:01:45.385Z,63.94
2018-05-04T02:04:13.694Z,63.66
2018-05-04T02:06:42.033Z,63.98
2018-05-04T02:09:10.353Z,63.33
2018-05-04T02:11:38.797Z,63.91
2018-05-04T02:14:08.095Z,63.36
2018-05-04T02:16:36.424Z,63.47
2018-05-04T02:19:04.730Z,63.30
2018-05-04T02:21:33.077Z,63.28
2018-05-04T02:24:01.396Z,63.64
2018-05-04T02:26:29.714Z,63.89
2018-05-04T02:28:58.060Z,63.81
2018-05-04T02:31:26.392Z,63.47
2018-05-04T02:33:54.709Z,63.42
2018-05-04T02:36:23.031Z,63.32
2018-05-04T02:38:51.344Z,63.32
2018-05-04T02:41:19.691Z,63.48
2018-05-04T02:43:48.029Z,63.47
2018-05-04T02:46:16.349Z,63.63
2018-05-04T02:48:44.646Z,63.47
2018-05-04T02:51:13.974Z,63.35
2018-05-04T02:53:42.349Z,63.55
2018-05-04T02:56:10.664Z,63.78
2018-05-04T02:58:39.007Z,63.44
2018-05-04T03:01:07.316Z,63.32
2018-05-04T03:03:35.624Z,63.38
2018-05-04T03:06:03.933Z,63.52
2018-05-04T03:08:32.318Z,63.43
2018-05-04T03:11:00.637Z,63.50
2018-05-04T03:13:28.995Z,63.48
2018-05-04T03:15:57.346Z,63.95
2018-05-04T03:18:25.728Z,63.75
2018-05-04T03:20:54.100Z,63.63
2018-05-04T03:23:22.486Z,63.72
2018-05-04T03:25:50.789Z,63.45
2018-05-04T03:28:19.121Z,63.55
2018-05-04T03:30:47.433Z,64.07
2018-05-04T03:33:15.737Z,63.96
2018-05-04T03:35:44.058Z,63.99
2018-05-04T03:38:12.378Z,63.97
2018-05-04T03:40:40.712Z,63.71
2018-05-04T03:43:09.053Z,63.53
2018-05-04T03:45:37.418Z,64.00
2018-05-04T03:48:05.760Z,64.27
2018-05-04T03:50:34.163Z,63.79
2018-05-04T03:53:02.530Z,63.94
2018-05-04T03:55:30.898Z,64.06
2018-05-04T03:58:11.138Z,63.85
2018-05-04T04:00:51.317Z,64.20
2018-05-04T04:03:31.401Z,64.39
2018-05-04T04:05:59.734Z,64.36
2018-05-04T04:08:28.113Z,64.58
2018-05-04T04:10:56.464Z,64.42
2018-05-04T04:13:24.775Z,64.60
2018-05-04T04:15:53.102Z,64.50
2018-05-04T04:18:21.532Z,64.41
2018-05-04T04:20:49.912Z,64.81
2018-05-04T04:23:18.230Z,64.96
2018-05-04T04:25:46.546Z,65.03
2018-05-04T04:28:14.895Z,64.90
2018-05-04T04:30:43.190Z,65.20
2018-05-04T04:33:11.514Z,64.92
2018-05-04T04:35:39.822Z,65.58
2018-05-04T04:38:08.140Z,65.87
2018-05-04T04:40:36.453Z,66.08
2018-05-04T04:43:04.769Z,66.29
2018-05-04T04:45:33.129Z,66.36
2018-05-04T04:48:01.413Z,66.48
2018-05-04T04:50:29.712Z,66.91
2018-05-04T04:52:58.105Z,67.02
2018-05-04T04:55:26.445Z,66.68
2018-05-04T04:57:54.804Z,67.08
2018-05-04T05:00:24.117Z,66.87
2018-05-04T05:02:52.474Z,66.96
2018-05-04T05:05:20.854Z,66.87
2018-05-04T05:07:49.154Z,66.57
2018-05-04T05:10:17.512Z,67.17
2018-05-04T05:12:45.932Z,66.97
2018-05-04T05:15:14.326Z,67.37
2018-05-04T05:17:42.717Z,67.01
2018-05-04T05:20:11.013Z,66.98
2018-05-04T05:22:39.339Z,67.27
2018-05-04T05:25:07.734Z,68.46
2018-05-04T05:27:36.046Z,68.25
2018-05-04T05:30:04.353Z,67.65
2018-05-04T05:32:32.769Z,67.93
2018-05-04T05:35:01.177Z,67.46
2018-05-04T05:37:29.518Z,67.24
2018-05-04T05:39:57.897Z,66.59
2018-05-04T05:42:26.374Z,66.03
2018-05-04T05:44:54.636Z,65.63
2018-05-04T05:47:22.964Z,65.68
2018-05-04T05:49:51.324Z,65.32
2018-05-04T05:52:19.640Z,65.10
2018-05-04T05:54:48.013Z,64.99
2018-05-04T05:57:16.311Z,64.33
2018-05-04T05:59:44.634Z,64.22
2018-05-04T06:02:13.005Z,64.05
2018-05-04T06:04:41.315Z,64.27
2018-05-04T06:07:09.629Z,63.65
2018-05-04T06:09:38.033Z,63.53
2018-05-04T06:12:06.340Z,63.80
2018-05-04T06:14:34.645Z,63.85
2018-05-04T06:17:02.977Z,63.77
2018-05-04T06:19:31.292Z,64.02
2018-05-04T06:21:59.623Z,63.87
2018-05-04T06:24:28.041Z,63.58
2018-05-04T06:26:56.379Z,63.27
2018-05-04T06:29:24.859Z,63.01
2018-05-04T06:31:53.250Z,62.82
2018-05-04T06:34:21.576Z,62.81
2018-05-04T06:36:49.889Z,62.42
2018-05-04T06:39:18.205Z,62.20
2018-05-04T06:41:46.518Z,62.02
2018-05-04T06:44:14.927Z,61.88
2018-05-04T06:46:43.305Z,61.77
2018-05-04T06:49:11.613Z,61.73
2018-05-04T06:51:39.999Z,61.66
2018-05-04T06:54:09.333Z,61.79
2018-05-04T06:56:37.645Z,61.35
2018-05-04T06:59:06.023Z,61.32
2018-05-04T07:01:34.361Z,61.22
2018-05-04T07:04:02.820Z,61.31
2018-05-04T07:06:31.116Z,61.51
2018-05-04T07:08:59.478Z,61.18
2018-05-04T07:11:27.772Z,61.17
2018-05-04T07:13:56.065Z,61.07
2018-05-04T07:16:24.389Z,60.97
2018-05-04T07:18:52.754Z,60.38
2018-05-04T07:21:21.068Z,60.57
2018-05-04T07:23:49.409Z,60.08
2018-05-04T07:26:18.351Z,59.81
2018-05-04T07:28:46.777Z,59.66
2018-05-04T07:31:15.093Z,59.67
2018-05-04T07:33:43.405Z,58.99
2018-05-04T07:36:11.823Z,58.30
2018-05-04T07:38:40.137Z,57.40
2018-05-04T07:41:08.441Z,57.42
2018-05-04T07:43:36.832Z,58.00
2018-05-04T07:46:05.152Z,57.99
2018-05-04T07:48:33.448Z,58.51
2018-05-04T07:51:01.852Z,58.64
2018-05-04T07:53:30.253Z,58.62
2018-05-04T07:55:58.564Z,58.40
2018-05-04T07:58:26.869Z,57.59
2018-05-04T08:00:55.219Z,57.53
2018-05-04T08:03:23.529Z,57.75
2018-05-04T08:05:51.845Z,57.70
2018-05-04T08:08:20.165Z,58.79
2018-05-04T08:10:48.489Z,59.95
2018-05-04T08:13:16.813Z,60.02
2018-05-04T08:15:45.129Z,60.17
2018-05-04T08:18:13.448Z,60.14
2018-05-04T08:20:41.760Z,60.41
2018-05-04T08:23:10.117Z,60.09
2018-05-04T08:25:38.428Z,59.74
2018-05-04T08:28:06.812Z,59.91
2018-05-04T08:30:35.194Z,59.76
2018-05-04T08:33:03.544Z,60.60
2018-05-04T08:35:32.038Z,60.48
2018-05-04T08:38:00.446Z,60.52
2018-05-04T08:40:28.774Z,60.87
2018-05-04T08:42:57.118Z,60.89
2018-05-04T08:45:25.425Z,60.81
2018-05-04T08:47:53.745Z,61.01
2018-05-04T08:50:22.057Z,60.87
2018-05-04T08:52:50.388Z,60.53
2018-05-04T08:55:18.707Z,60.29
2018-05-04T08:57:47.021Z,60.26
2018-05-04T09:00:15.413Z,60.33
2018-05-04T09:02:43.808Z,60.18
2018-05-04T09:05:12.168Z,60.23
2018-05-04T09:07:40.440Z,61.22
2018-05-04T09:10:08.876Z,61.70
2018-05-04T09:12:37.180Z,62.22
2018-05-04T09:15:05.572Z,62.89
2018-05-04T09:17:33.888Z,62.64
2018-05-04T09:20:02.211Z,62.69
2018-05-04T09:22:30.542Z,62.96
2018-05-04T09:24:58.916Z,63.41
2018-05-04T09:27:27.273Z,63.52
2018-05-04T09:29:55.653Z,64.06
2018-05-04T09:32:23.969Z,63.48
2018-05-04T09:34:52.305Z,63.23
2018-05-04T09:37:20.759Z,63.31
2018-05-04T09:39:49.029Z,63.42
2018-05-04T09:42:17.361Z,63.08
2018-05-04T09:44:45.721Z,62.62
2018-05-04T09:47:14.145Z,62.74
2018-05-04T09:49:42.477Z,63.18
2018-05-04T09:52:10.807Z,63.48
2018-05-04T09:54:39.112Z,63.63
2018-05-04T09:57:07.555Z,63.45
2018-05-04T09:59:35.900Z,63.82
2018-05-04T10:02:04.221Z,63.64
2018-05-04T10:04:32.590Z,63.73
2018-05-04T10:07:00.907Z,63.89
2018-05-04T10:09:29.267Z,64.60
2018-05-04T10:11:57.586Z,64.23
2018-05-04T10:14:25.914Z,64.86
2018-05-04T10:16:54.235Z,64.84
2018-05-04T10:19:22.621Z,65.21
2018-05-04T10:21:51.077Z,64.94
2018-05-04T10:24:19.373Z,64.75
2018-05-04T10:26:47.810Z,64.72
2018-05-04T10:29:16.142Z,64.81
2018-05-04T10:31:44.452Z,64.32
2018-05-04T10:34:12.778Z,63.71
2018-05-04T10:36:41.168Z,63.61
2018-05-04T10:39:09.537Z,63.71
2018-05-04T10:41:37.860Z,64.36
2018-05-04T10:44:06.201Z,63.72
2018-05-04T10:46:34.538Z,63.61
2018-05-04T10:49:02.862Z,63.03
2018-05-04T10:51:31.171Z,63.37
2018-05-04T10:53:59.497Z,63.32
2018-05-04T10:56:27.809Z,63.42
2018-05-04T10:58:56.158Z,63.47
2018-05-04T11:01:24.533Z,63.19
2018-05-04T11:03:52.909Z,62.92
2018-05-04T11:06:21.329Z,62.46
2018-05-04T11:08:49.677Z,61.86
2018-05-04T11:11:18.050Z,62.03
2018-05-04T11:13:46.399Z,61.75
2018-05-04T11:16:14.704Z,61.65
2018-05-04T11:18:43.024Z,61.62
2018-05-04T11:21:11.391Z,60.97
2018-05-04T11:23:39.741Z,61.73
2018-05-04T11:26:08.064Z,62.03
2018-05-04T11:28:36.431Z,62.09
2018-05-04T11:31:04.762Z,61.31
2018-05-04T11:33:33.145Z,61.12
2018-05-04T11:36:01.481Z,60.65
2018-05-04T11:38:29.804Z,60.65
2018-05-04T11:40:58.122Z,61.06
2018-05-04T11:43:26.459Z,60.73
2018-05-04T11:45:54.769Z,60.88
2018-05-04T11:48:23.084Z,60.50
2018-05-04T11:50:51.522Z,60.24
2018-05-04T11:53:19.828Z,60.93
2018-05-04T11:55:48.241Z,61.26
2018-05-04T11:58:16.658Z,61.25
2018-05-04T12:00:44.961Z,60.64
2018-05-04T12:03:13.281Z,61.52
2018-05-04T12:05:41.646Z,61.91
2018-05-04T12:08:09.959Z,61.47
2018-05-04T12:10:38.345Z,61.71
2018-05-04T12:13:06.661Z,61.32
2018-05-04T12:15:34.989Z,60.48
2018-05-04T12:18:03.309Z,59.63
2018-05-04T12:20:31.635Z,59.26
2018-05-04T12:22:59.958Z,60.15
2018-05-04T12:25:28.380Z,59.42
2018-05-04T12:27:56.723Z,59.99
2018-05-04T12:30:25.046Z,59.21
2018-05-04T12:32:53.376Z,58.06
2018-05-04T12:35:21.706Z,59.00
2018-05-04T12:37:50.094Z,58.95
2018-05-04T12:40:18.476Z,59.21
2018-05-04T12:42:46.853Z,58.82
2018-05-04T12:45:15.167Z,58.65
2018-05-04T12:47:43.569Z,58.20
2018-05-04T12:50:11.922Z,57.68
2018-05-04T12:52:41.489Z,57.33
2018-05-04T12:55:09.755Z,56.65
2018-05-04T12:57:38.140Z,54.69
2018-05-04T13:00:06.449Z,55.59
2018-05-04T13:02:34.858Z,50.32
2018-05-04T13:05:03.201Z,45.36
2018-05-04T13:07:31.540Z,43.11
2018-05-04T13:09:59.938Z,44.76
2018-05-04T13:12:28.269Z,44.43
2018-05-04T13:14:56.598Z,46.79
2018-05-04T13:17:25.045Z,48.30
2018-05-04T13:19:53.334Z,47.95
2018-05-04T13:22:21.646Z,50.24
2018-05-04T13:24:50.003Z,48.71
2018-05-04T13:27:18.329Z,45.57
2018-05-04T13:29:46.715Z,42.39
2018-05-04T13:32:15.021Z,46.21
2018-05-04T13:34:43.357Z,45.78
2018-05-04T13:37:11.746Z,42.86
2018-05-04T13:39:40.065Z,41.73
2018-05-04T13:42:08.500Z,41.46
2018-05-04T13:44:36.896Z,39.03
2018-05-04T13:47:05.200Z,38.69
2018-05-04T13:49:33.596Z,38.61
2018-05-04T13:52:01.899Z,37.78
2018-05-04T13:54:30.208Z,36.60
2018-05-04T13:56:58.584Z,38.25
2018-05-04T13:59:26.995Z,36.06
2018-05-04T14:01:55.285Z,37.18
2018-05-04T14:04:23.601Z,36.63
2018-05-04T14:06:51.922Z,36.74
2018-05-04T14:09:20.358Z,35.50
2018-05-04T14:11:48.741Z,35.62
2018-05-04T14:14:17.045Z,35.62
2018-05-04T14:16:45.356Z,35.57
2018-05-04T14:19:13.773Z,37.80
2018-05-04T14:21:42.087Z,35.34
2018-05-04T14:24:10.404Z,36.83
2018-05-04T14:26:38.721Z,39.27
2018-05-04T14:29:07.024Z,40.67
2018-05-04T14:31:35.364Z,39.44
2018-05-04T14:34:03.686Z,37.68
2018-05-04T14:36:31.998Z,37.53
2018-05-04T14:39:00.311Z,36.25
2018-05-04T14:41:28.671Z,36.00
2018-05-04T14:43:57.186Z,35.08
2018-05-04T14:46:25.477Z,34.63
2018-05-04T14:48:53.789Z,35.51
2018-05-04T14:51:22.198Z,35.63
2018-05-04T14:53:50.497Z,41.01
2018-05-04T14:56:18.801Z,37.79
2018-05-04T14:58:47.124Z,40.03
2018-05-04T15:01:15.477Z,41.50
2018-05-04T15:03:43.869Z,38.37
2018-05-04T15:06:12.286Z,34.33
2018-05-04T15:08:40.579Z,34.08
2018-05-04T15:11:08.999Z,35.13
2018-05-04T15:13:37.385Z,39.58
2018-05-04T15:16:05.839Z,41.92
2018-05-04T15:18:34.094Z,41.54
2018-05-04T15:21:02.404Z,38.66
2018-05-04T15:23:30.730Z,37.74
2018-05-04T15:25:59.054Z,34.66
2018-05-04T15:28:27.449Z,33.67
2018-05-04T15:30:55.769Z,34.55
2018-05-04T15:33:24.082Z,35.99
2018-05-04T15:35:52.395Z,36.60
2018-05-04T15:38:20.697Z,35.73
2018-05-04T15:40:49.019Z,33.73
2018-05-04T15:43:17.333Z,34.68
2018-05-04T15:45:45.683Z,34.41
2018-05-04T15:48:19.543Z,34.07
2018-05-04T15:50:53.493Z,33.88
2018-05-04T15:53:21.881Z,36.51
2018-05-04T15:55:50.211Z,41.28
2018-05-04T15:58:18.531Z,42.82
2018-05-04T16:00:46.876Z,43.98
2018-05-04T16:03:15.185Z,41.20
2018-05-04T16:05:43.487Z,43.11
2018-05-04T16:08:11.824Z,46.89
2018-05-04T16:10:40.219Z,46.40
2018-05-04T16:13:08.597Z,47.10
2018-05-04T16:15:36.969Z,48.05
2018-05-04T16:18:05.348Z,48.08
2018-05-04T16:20:33.772Z,47.78
2018-05-04T16:23:02.118Z,48.37
2018-05-04T16:25:30.485Z,48.49
2018-05-04T16:27:58.824Z,46.99
2018-05-04T16:30:27.130Z,48.66
2018-05-04T16:32:55.447Z,47.54
2018-05-04T16:35:23.793Z,48.27
2018-05-04T16:37:52.125Z,48.13
2018-05-04T16:40:20.453Z,48.14
2018-05-04T16:42:48.838Z,48.51
2018-05-04T16:45:17.168Z,48.59
2018-05-04T16:47:51.158Z,46.68
2018-05-04T16:50:19.481Z,46.57
2018-05-04T16:52:47.877Z,46.26
2018-05-04T16:55:16.258Z,43.26
2018-05-04T16:57:44.579Z,43.19
2018-05-04T17:00:12.915Z,43.01
2018-05-04T17:02:41.221Z,43.29
2018-05-04T17:05:09.599Z,42.92
2018-05-04T17:07:37.925Z,44.81
2018-05-04T17:10:06.236Z,46.54
2018-05-04T17:12:34.569Z,48.94
2018-05-04T17:15:02.890Z,49.34
2018-05-04T17:17:31.234Z,49.81
2018-05-04T17:19:59.629Z,50.47
2018-05-04T17:22:27.964Z,51.23
2018-05-04T17:24:56.293Z,51.43
2018-05-04T17:27:24.617Z,52.29
2018-05-04T17:29:52.969Z,52.76
2018-05-04T17:32:21.274Z,53.07
2018-05-04T17:34:49.682Z,54.14
2018-05-04T17:37:18.011Z,54.21
2018-05-04T17:39:46.339Z,54.14
2018-05-04T17:42:14.668Z,54.27
2018-05-04T17:44:43.000Z,54.39
2018-05-04T17:47:11.487Z,54.74
2018-05-04T17:49:39.724Z,55.17
2018-05-04T17:52:08.057Z,55.36
2018-05-04T17:54:36.372Z,56.22
2018-05-04T17:57:04.800Z,55.85
2018-05-04T17:59:33.128Z,56.13
2018-05-04T18:02:01.481Z,56.90
2018-05-04T18:04:29.911Z,57.24
2018-05-04T18:06:58.241Z,57.81
2018-05-04T18:09:26.570Z,57.36
2018-05-04T18:11:54.885Z,57.78
2018-05-04T18:14:23.231Z,58.58
2018-05-04T18:16:51.601Z,58.71
2018-05-04T18:19:19.925Z,58.87
2018-05-04T18:21:48.257Z,58.74
2018-05-04T18:24:16.579Z,59.29
2018-05-04T18:26:44.906Z,59.23
2018-05-04T18:29:13.238Z,58.90
2018-05-04T18:31:41.673Z,59.33
2018-05-04T18:34:10.053Z,59.59
2018-05-04T18:36:38.392Z,59.58
2018-05-04T18:39:06.851Z,59.64
2018-05-04T18:41:35.245Z,60.12
2018-05-04T18:44:03.575Z,60.21
2018-05-04T18:46:31.892Z,60.40
2018-05-04T18:49:00.216Z,60.27
2018-05-04T18:51:28.558Z,60.49
2018-05-04T18:53:56.886Z,60.58
2018-05-04T18:56:25.255Z,60.31
2018-05-04T18:58:53.642Z,60.53
2018-05-04T19:01:22.005Z,60.71
2018-05-04T19:03:50.374Z,60.81
2018-05-04T19:06:18.697Z,61.31
2018-05-04T19:08:47.031Z,61.03
2018-05-04T19:11:15.364Z,61.01
2018-05-04T19:13:43.777Z,61.16
2018-05-04T19:16:12.180Z,60.92
2018-05-04T19:18:40.561Z,60.80
2018-05-04T19:21:08.935Z,60.76
2018-05-04T19:23:37.351Z,60.77
2018-05-04T19:26:05.691Z,61.13
2018-05-04T19:28:34.028Z,61.24
2018-05-04T19:31:02.452Z,61.49
2018-05-04T19:33:30.800Z,61.55
2018-05-04T19:35:59.199Z,61.13
2018-05-04T19:38:27.588Z,61.71
2018-05-04T19:40:55.964Z,61.82
2018-05-04T19:43:24.285Z,61.36
2018-05-04T19:45:52.730Z,60.81
2018-05-04T19:48:21.094Z,61.08
2018-05-04T19:50:49.486Z,61.07
2018-05-04T19:53:17.807Z,61.44
2018-05-04T19:55:46.239Z,61.18
2018-05-04T19:58:14.653Z,61.28
2018-05-04T20:00:42.977Z,61.54
2018-05-04T20:03:11.365Z,61.53
2018-05-04T20:05:39.752Z,61.85
2018-05-04T20:08:08.096Z,61.54
2018-05-04T20:10:36.444Z,62.10
2018-05-04T20:13:04.781Z,61.73
2018-05-04T20:15:33.126Z,61.57
2018-05-04T20:18:01.452Z,61.77
2018-05-04T20:20:29.820Z,61.92
2018-05-04T20:22:58.145Z,62.16
2018-05-04T20:25:26.503Z,62.29
2018-05-04T20:27:54.845Z,62.43
2018-05-04T20:30:23.211Z,62.78
2018-05-04T20:32:51.602Z,62.99
2018-05-04T20:35:19.931Z,62.82
2018-05-04T20:37:49.006Z,63.31
2018-05-04T20:40:17.342Z,63.74
2018-05-04T20:42:45.678Z,63.77
2018-05-04T20:45:13.992Z,63.83
2018-05-04T20:47:42.376Z,63.98
2018-05-04T20:50:10.714Z,63.99
2018-05-04T20:52:39.139Z,63.96
2018-05-04T20:55:07.523Z,63.83
2018-05-04T20:57:35.869Z,63.93
2018-05-04T21:00:04.190Z,63.98
2018-05-04T21:02:32.561Z,64.18
2018-05-04T21:05:00.939Z,63.97
2018-05-04T21:07:29.282Z,64.06
2018-05-04T21:09:57.597Z,64.39
2018-05-04T21:12:25.941Z,64.63
2018-05-04T21:14:54.321Z,64.80
2018-05-04T21:17:22.733Z,65.25
2018-05-04T21:19:51.128Z,65.28
2018-05-04T21:22:19.469Z,65.77
2018-05-04T21:24:47.889Z,65.33
2018-05-04T21:27:16.238Z,65.41
2018-05-04T21:29:44.594Z,65.57
2018-05-04T21:32:12.928Z,65.57
2018-05-04T21:34:41.594Z,65.56
2018-05-04T21:37:09.916Z,65.54
2018-05-04T21:39:38.326Z,65.73
2018-05-04T21:42:06.655Z,65.56
2018-05-04T21:44:35.902Z,65.44
2018-05-04T21:47:04.233Z,65.63
2018-05-04T21:49:32.654Z,65.80
2018-05-04T21:52:01.095Z,65.53
2018-05-04T21:54:29.405Z,65.78
2018-05-04T21:56:57.737Z,66.13
2018-05-04T21:59:26.092Z,66.07
2018-05-04T22:01:54.414Z,65.92
2018-05-04T22:04:22.762Z,66.15
2018-05-04T22:06:51.087Z,65.95
2018-05-04T22:09:19.480Z,66.10
2018-05-04T22:11:47.808Z,65.82
2018-05-04T22:14:16.236Z,65.92
2018-05-04T22:16:44.574Z,65.88
2018-05-04T22:19:12.914Z,65.96
2018-05-04T22:21:41.258Z,65.81
2018-05-04T22:24:09.653Z,65.72
2018-05-04T22:26:38.001Z,65.70
2018-05-04T22:29:06.369Z,65.96
2018-05-04T22:31:34.785Z,65.72
2018-05-04T22:34:03.125Z,65.95
2018-05-04T22:36:31.481Z,65.75
2018-05-04T22:38:59.814Z,66.05
2018-05-04T22:41:28.172Z,66.37
2018-05-04T22:43:56.504Z,66.46
2018-05-04T22:46:25.687Z,66.59
2018-05-04T22:48:54.007Z,66.47
2018-05-04T22:51:22.416Z,66.52
2018-05-04T22:53:50.799Z,66.55
2018-05-04T22:56:19.146Z,66.49
2018-05-04T22:58:47.456Z,66.76
2018-05-04T23:01:15.797Z,66.69
2018-05-04T23:03:44.124Z,66.58
2018-05-04T23:06:12.497Z,66.30
2018-05-04T23:08:40.825Z,66.13
2018-05-04T23:11:09.150Z,66.03
2018-05-04T23:13:37.536Z,65.72
2018-05-04T23:16:05.911Z,64.18
2018-05-04T23:18:34.281Z,64.22
2018-05-04T23:21:02.655Z,63.95
2018-05-04T23:23:30.941Z,63.98
2018-05-04T23:25:59.271Z,64.40
2018-05-04T23:28:27.683Z,64.22
2018-05-04T23:30:56.001Z,63.91
2018-05-04T23:33:24.328Z,63.93
2018-05-04T23:35:52.648Z,63.72
2018-05-04T23:38:20.980Z,63.45
2018-05-04T23:40:49.288Z,63.12
2018-05-04T23:43:17.625Z,63.09
2018-05-04T23:45:45.930Z,63.01
2018-05-04T23:48:14.313Z,62.94
2018-05-04T23:50:42.689Z,62.99
2018-05-04T23:53:11.013Z,63.23
2018-05-04T23:55:39.320Z,63.18
2018-05-04T23:58:07.667Z,63.75
